createdAt,value
2024-02-19T00:02:57.687Z,4.78
2024-02-19T00:06:59.307Z,4.60
2024-02-19T00:11:02.367Z,5.25
2024-02-19T00:15:06.510Z,4.28
2024-02-19T00:19:08.257Z,4.00
2024-02-19T00:23:09.848Z,5.03
2024-02-19T00:27:11.454Z,5.03
2024-02-19T00:31:13.520Z,4.80
2024-02-19T00:35:15.128Z,3.50
2024-02-19T00:39:16.661Z,4.88
2024-02-19T00:43:18.297Z,3.30
2024-02-19T00:47:19.904Z,3.95
2024-02-19T00:51:21.487Z,3.78
2024-02-19T00:55:23.134Z,3.72
2024-02-19T00:59:26.553Z,3.58
2024-02-19T01:03:28.370Z,3.13
2024-02-19T01:07:29.991Z,3.38
2024-02-19T01:11:31.653Z,2.97
2024-02-19T01:15:33.299Z,2.92
2024-02-19T01:19:35.445Z,4.07
2024-02-19T01:23:37.561Z,3.13
2024-02-19T01:27:39.139Z,2.78
2024-02-19T01:31:40.729Z,3.20
2024-02-19T01:35:42.625Z,3.80
2024-02-19T01:43:45.864Z,3.22
2024-02-19T01:47:47.532Z,2.42
2024-02-19T01:51:49.844Z,2.35
2024-02-19T01:55:51.503Z,2.67
2024-02-19T01:59:54.034Z,3.58
2024-02-19T02:03:55.970Z,1.90
2024-02-19T02:07:58.396Z,2.25
2024-02-19T02:12:00.094Z,2.33
2024-02-19T02:16:05.726Z,3.10
2024-02-19T02:20:09.286Z,2.70
2024-02-19T02:24:11.024Z,2.83
2024-02-19T02:28:12.675Z,3.17
2024-02-19T02:32:16.303Z,3.65
2024-02-19T02:36:17.893Z,2.45
2024-02-19T02:40:19.489Z,2.22
2024-02-19T02:44:21.125Z,2.75
2024-02-19T02:48:23.172Z,3.08
2024-02-19T02:52:24.872Z,2.58
2024-02-19T02:56:26.396Z,2.03
2024-02-19T03:00:27.936Z,2.65
2024-02-19T03:04:29.588Z,2.40
2024-02-19T03:08:31.643Z,2.20
2024-02-19T03:12:33.211Z,2.60
2024-02-19T03:16:35.544Z,2.33
2024-02-19T03:20:37.693Z,2.45
2024-02-19T03:24:39.341Z,2.03
2024-02-19T03:28:40.982Z,2.42
2024-02-19T03:32:42.688Z,2.65
2024-02-19T03:36:51.857Z,2.15
2024-02-19T03:40:53.419Z,1.95
2024-02-19T03:44:54.948Z,2.55
2024-02-19T03:48:56.971Z,2.30
2024-02-19T03:52:58.615Z,2.33
2024-02-19T03:57:00.246Z,2.25
2024-02-19T04:01:02.122Z,2.13
2024-02-19T04:05:04.581Z,2.42
2024-02-19T04:09:06.175Z,2.72
2024-02-19T04:13:07.713Z,2.00
2024-02-19T04:17:09.608Z,2.40
2024-02-19T04:21:11.146Z,3.08
2024-02-19T04:25:14.552Z,1.85
2024-02-19T04:29:16.104Z,2.10
2024-02-19T04:33:17.699Z,3.17
2024-02-19T04:37:20.652Z,3.00
2024-02-19T04:41:22.202Z,2.75
2024-02-19T04:45:23.816Z,2.38
2024-02-19T04:49:25.448Z,2.47
2024-02-19T04:53:27.322Z,2.53
2024-02-19T04:57:28.917Z,1.88
2024-02-19T05:01:33.845Z,2.50
2024-02-19T05:05:36.385Z,1.98
2024-02-19T05:09:38.151Z,2.28
2024-02-19T05:13:39.746Z,2.85
2024-02-19T05:17:41.315Z,2.60
2024-02-19T05:21:43.000Z,4.07
2024-02-19T05:25:44.663Z,2.90
2024-02-19T05:29:46.226Z,2.30
2024-02-19T05:33:47.835Z,2.92
2024-02-19T05:37:49.421Z,2.33
2024-02-19T05:41:50.961Z,3.10
2024-02-19T05:45:54.200Z,2.78
2024-02-19T05:49:55.966Z,3.15
2024-02-19T05:53:57.509Z,3.25
2024-02-19T05:57:59.216Z,2.83
2024-02-19T06:02:01.074Z,2.70
2024-02-19T06:06:04.139Z,3.35
2024-02-19T06:10:07.793Z,2.38
2024-02-19T06:14:09.432Z,3.13
2024-02-19T06:18:11.086Z,3.45
2024-02-19T06:22:15.294Z,3.20
2024-02-19T06:26:17.050Z,3.28
2024-02-19T06:30:19.901Z,2.70
2024-02-19T06:34:22.441Z,3.33
2024-02-19T06:38:24.084Z,3.15
2024-02-19T06:42:25.582Z,2.38
2024-02-19T06:46:27.290Z,2.97
2024-02-19T06:50:28.818Z,3.03
2024-02-19T06:54:31.965Z,3.15
2024-02-19T06:58:34.811Z,3.13
2024-02-19T07:02:36.660Z,3.35
2024-02-19T07:06:38.585Z,3.15
2024-02-19T07:10:40.782Z,2.80
2024-02-19T07:14:43.008Z,2.63
2024-02-19T07:18:44.813Z,2.78
2024-02-19T07:22:46.487Z,2.35
2024-02-19T07:26:48.098Z,2.92
2024-02-19T07:30:49.628Z,2.38
2024-02-19T07:34:51.190Z,2.92
2024-02-19T07:38:52.834Z,2.42
2024-02-19T07:42:54.412Z,2.72
2024-02-19T07:46:55.915Z,2.85
2024-02-19T07:50:57.479Z,2.15
2024-02-19T07:54:59.161Z,2.33
2024-02-19T07:59:00.663Z,2.13
2024-02-19T08:03:02.811Z,1.52
2024-02-19T08:07:05.014Z,1.75
2024-02-19T08:11:06.951Z,2.28
2024-02-19T08:15:10.045Z,1.85
2024-02-19T08:19:11.668Z,2.65
2024-02-19T08:23:13.436Z,3.78
2024-02-19T08:27:15.024Z,2.45
2024-02-19T08:31:16.620Z,1.60
2024-02-19T08:35:18.485Z,1.90
2024-02-19T08:39:20.229Z,2.00
2024-02-19T08:43:21.887Z,1.60
2024-02-19T08:47:23.674Z,2.05
2024-02-19T08:51:25.552Z,2.28
2024-02-19T08:55:27.296Z,2.05
2024-02-19T08:59:28.928Z,2.50
2024-02-19T09:03:30.588Z,2.17
2024-02-19T09:07:33.108Z,1.88
2024-02-19T09:11:34.822Z,2.10
2024-02-19T09:15:36.421Z,3.13
2024-02-19T09:19:38.187Z,2.28
2024-02-19T09:23:39.934Z,1.88
2024-02-19T09:27:41.564Z,2.13
2024-02-19T09:31:43.047Z,2.03
2024-02-19T09:35:45.517Z,1.73
2024-02-19T09:39:51.579Z,1.98
2024-02-19T09:43:53.246Z,1.77
2024-02-19T09:48:01.425Z,2.70
2024-02-19T09:52:04.425Z,2.08
2024-02-19T09:56:08.144Z,2.13
2024-02-19T10:00:13.423Z,2.00
2024-02-19T10:04:16.840Z,2.63
2024-02-19T10:08:18.551Z,2.13
2024-02-19T10:12:20.709Z,2.13
2024-02-19T10:16:22.302Z,2.20
2024-02-19T10:20:23.868Z,2.65
2024-02-19T10:24:27.203Z,2.70
2024-02-19T10:28:29.859Z,1.85
2024-02-19T10:32:31.505Z,2.13
2024-02-19T10:36:34.505Z,1.60
2024-02-19T10:40:36.554Z,2.00
2024-02-19T10:44:38.790Z,1.75
2024-02-19T10:48:41.567Z,2.00
2024-02-19T10:52:43.170Z,2.25
2024-02-19T10:56:45.482Z,2.05
2024-02-19T11:00:47.202Z,2.17
2024-02-19T11:04:52.696Z,2.58
2024-02-19T11:08:57.187Z,1.73
2024-02-19T11:13:07.436Z,1.70
2024-02-19T11:17:09.900Z,2.53
2024-02-19T11:21:12.067Z,1.83
2024-02-19T11:25:13.672Z,1.63
2024-02-19T11:29:23.482Z,2.10
2024-02-19T11:33:26.704Z,1.75
2024-02-19T11:37:28.318Z,1.85
2024-02-19T11:41:30.125Z,2.28
2024-02-19T11:45:33.891Z,2.22
2024-02-19T11:49:35.709Z,2.45
2024-02-19T11:53:37.769Z,2.03
2024-02-19T11:57:39.268Z,1.98
2024-02-19T12:01:41.011Z,1.42
2024-02-19T12:05:43.078Z,1.30
2024-02-19T12:09:45.035Z,1.83
2024-02-19T12:13:47.459Z,1.40
2024-02-19T12:17:54.202Z,1.23
2024-02-19T12:21:55.940Z,1.65
2024-02-19T12:25:57.524Z,1.30
2024-02-19T12:29:59.160Z,1.55
2024-02-19T12:34:01.111Z,1.23
2024-02-19T12:38:02.859Z,1.58
2024-02-19T12:42:09.515Z,1.15
2024-02-19T12:46:15.630Z,1.30
2024-02-19T12:50:18.660Z,1.48
2024-02-19T12:54:21.747Z,1.23
2024-02-19T12:58:24.296Z,1.40
2024-02-19T13:02:25.946Z,1.08
2024-02-19T13:06:29.006Z,1.13
2024-02-19T13:10:32.717Z,1.35
2024-02-19T13:14:35.466Z,1.17
2024-02-19T13:18:37.445Z,1.13
2024-02-19T13:22:39.200Z,1.50
2024-02-19T13:26:40.788Z,1.73
2024-02-19T13:30:42.565Z,1.30
2024-02-19T13:34:44.228Z,1.40
2024-02-19T13:38:48.703Z,1.38
2024-02-19T13:42:50.410Z,1.48
2024-02-19T13:46:52.097Z,1.52
2024-02-19T13:50:57.881Z,1.73
2024-02-19T13:54:59.816Z,1.70
2024-02-19T13:59:01.376Z,1.42
2024-02-19T14:03:03.133Z,1.55
2024-02-19T14:07:05.242Z,1.60
2024-02-19T14:11:08.140Z,1.23
2024-02-19T14:15:10.037Z,1.85
2024-02-19T14:19:11.792Z,2.75
2024-02-19T14:23:13.740Z,1.60
2024-02-19T14:27:15.397Z,1.80
2024-02-19T14:31:17.196Z,1.42
2024-02-19T14:35:19.067Z,1.50
2024-02-19T14:39:21.560Z,1.80
2024-02-19T14:43:23.445Z,1.58
2024-02-19T14:47:25.218Z,1.30
2024-02-19T14:51:27.031Z,1.63
2024-02-19T14:55:28.758Z,1.40
2024-02-19T14:59:30.455Z,1.85
2024-02-19T15:03:33.166Z,2.42
2024-02-19T15:07:35.783Z,1.85
2024-02-19T15:11:37.482Z,1.88
2024-02-19T15:15:39.013Z,1.92
2024-02-19T15:19:40.771Z,2.92
2024-02-19T15:23:42.694Z,1.92
2024-02-19T15:27:44.380Z,2.45
2024-02-19T15:31:46.407Z,1.88
2024-02-19T15:35:48.681Z,3.50
2024-02-19T15:39:51.013Z,1.13
2024-02-19T15:43:55.620Z,1.70
2024-02-19T15:47:57.904Z,1.65
2024-02-19T15:51:59.510Z,1.30
2024-02-19T15:56:01.211Z,1.95
2024-02-19T16:00:03.023Z,1.50
2024-02-19T16:04:04.794Z,2.05
2024-02-19T16:08:32.336Z,2.28
2024-02-19T16:12:33.902Z,2.22
2024-02-19T16:16:35.666Z,1.90
2024-02-19T16:20:37.330Z,2.65
2024-02-19T16:24:38.918Z,1.65
2024-02-19T16:28:42.025Z,1.73
2024-02-19T16:32:43.805Z,1.75
2024-02-19T16:36:45.889Z,1.83
2024-02-19T16:40:47.849Z,1.52
2024-02-19T16:44:49.492Z,1.58
2024-02-19T16:48:51.192Z,1.55
2024-02-19T16:52:52.804Z,2.20
2024-02-19T16:56:54.349Z,1.48
2024-02-19T17:00:58.993Z,1.88
2024-02-19T17:05:03.356Z,1.80
2024-02-19T17:09:07.210Z,2.20
2024-02-19T17:13:08.793Z,1.90
2024-02-19T17:17:10.595Z,3.05
2024-02-19T17:21:12.197Z,1.63
2024-02-19T17:25:13.914Z,2.20
2024-02-19T17:29:15.481Z,1.25
2024-02-19T17:33:17.174Z,1.70
2024-02-19T17:37:19.250Z,1.60
2024-02-19T17:41:21.084Z,2.13
2024-02-19T17:45:22.922Z,2.42
2024-02-19T17:49:24.833Z,1.70
2024-02-19T17:53:26.505Z,1.33
2024-02-19T17:57:28.024Z,1.65
2024-02-19T18:01:29.803Z,2.35
2024-02-19T18:05:31.651Z,1.98
2024-02-19T18:09:33.239Z,2.25
2024-02-19T18:13:35.171Z,2.25
2024-02-19T18:17:37.373Z,1.80
2024-02-19T18:21:38.951Z,2.20
2024-02-19T18:25:40.488Z,2.40
2024-02-19T18:29:42.625Z,2.08
2024-02-19T18:33:44.384Z,1.83
2024-02-19T18:37:46.108Z,2.40
2024-02-19T18:41:48.360Z,2.05
2024-02-19T18:45:49.934Z,2.30
2024-02-19T18:49:51.702Z,1.90
2024-02-19T18:53:53.433Z,2.08
2024-02-19T18:57:55.557Z,2.17
2024-02-19T19:01:58.967Z,1.77
2024-02-19T19:06:04.353Z,2.35
2024-02-19T19:10:06.871Z,1.77
2024-02-19T19:14:10.842Z,2.35
2024-02-19T19:18:13.063Z,1.77
2024-02-19T19:22:19.891Z,2.25
2024-02-19T19:26:21.608Z,1.77
2024-02-19T19:30:25.104Z,1.98
2024-02-19T19:34:27.955Z,1.90
2024-02-19T19:38:30.307Z,1.67
2024-02-19T19:42:31.891Z,2.40
2024-02-19T19:46:34.335Z,2.63
2024-02-19T19:50:36.932Z,2.78
2024-02-19T19:54:39.501Z,2.17
2024-02-19T19:58:41.165Z,2.17
2024-02-19T20:02:45.969Z,2.88
2024-02-19T20:06:47.847Z,2.78
2024-02-19T20:10:49.791Z,3.55
2024-02-19T20:14:54.140Z,2.92
2024-02-19T20:18:58.775Z,3.10
2024-02-19T20:23:00.532Z,2.55
2024-02-19T20:27:03.023Z,3.72
2024-02-19T20:31:06.960Z,3.17
2024-02-19T20:35:09.389Z,2.08
2024-02-19T20:39:15.141Z,3.13
2024-02-19T20:43:16.747Z,2.60
2024-02-19T20:47:19.765Z,2.95
2024-02-19T20:51:21.302Z,2.65
2024-02-19T20:55:24.206Z,3.15
2024-02-19T20:59:25.787Z,2.58
2024-02-19T21:03:35.506Z,2.92
2024-02-19T21:07:44.539Z,3.72
2024-02-19T21:11:47.235Z,3.55
2024-02-19T21:15:49.015Z,2.83
2024-02-19T21:19:51.124Z,2.80
2024-02-19T21:23:52.833Z,3.03
2024-02-19T21:27:54.420Z,3.30
2024-02-19T21:31:56.111Z,3.30
2024-02-19T21:36:06.062Z,2.75
2024-02-19T21:40:10.422Z,2.55
2024-02-19T21:44:12.816Z,3.28
2024-02-19T21:48:14.443Z,2.85
2024-02-19T21:52:16.132Z,2.92
2024-02-19T21:56:18.050Z,2.72
2024-02-19T22:00:20.681Z,2.83
2024-02-19T22:04:22.322Z,2.70
2024-02-19T22:08:24.647Z,2.60
2024-02-19T22:12:26.184Z,3.22
2024-02-19T22:16:27.788Z,3.38
2024-02-19T22:20:30.598Z,3.67
2024-02-19T22:24:32.132Z,4.32
2024-02-19T22:28:33.765Z,3.30
2024-02-19T22:32:35.350Z,2.60
2024-02-19T22:36:36.873Z,3.33
2024-02-19T22:40:38.603Z,3.58
2024-02-19T22:44:41.762Z,4.00
2024-02-19T22:48:43.373Z,3.47
2024-02-19T22:52:46.792Z,3.72
2024-02-19T22:56:48.654Z,3.28
2024-02-19T23:00:51.178Z,2.80
2024-02-19T23:04:54.309Z,3.38
2024-02-19T23:08:55.825Z,3.55
2024-02-19T23:12:57.904Z,4.05
2024-02-19T23:16:59.777Z,3.78
2024-02-19T23:21:01.519Z,3.08
2024-02-19T23:25:03.675Z,3.60
2024-02-19T23:29:05.248Z,2.92
2024-02-19T23:33:06.981Z,3.35
2024-02-19T23:37:10.550Z,3.58
2024-02-19T23:41:12.780Z,3.53
2024-02-19T23:45:14.469Z,3.47
2024-02-19T23:49:16.722Z,4.13
2024-02-19T23:53:18.399Z,3.70
2024-02-19T23:57:20.236Z,4.25
